sensor_id;sensor_type;location;lat;lon;timestamp;temperature;humidity
16479;DHT22;8350;52.316;10.530;2023-02-10T00:00:43;2.10;1.00
16479;DHT22;8350;52.316;10.530;2023-02-10T00:03:13;2.10;1.00
16479;DHT22;8350;52.316;10.530;2023-02-10T00:05:40;2.10;1.00
16479;DHT22;8350;52.316;10.530;2023-02-10T00:08:08;2.10;1.00
16479;DHT22;8350;52.316;10.530;2023-02-10T00:10:36;2.20;1.00
16479;DHT22;8350;52.316;10.530;2023-02-10T00:13:03;2.20;1.00
16479;DHT22;8350;52.316;10.530;2023-02-10T00:15:29;2.20;1.00
16479;DHT22;8350;52.316;10.530;2023-02-10T00:17:56;2.20;1.00
16479;DHT22;8350;52.316;10.530;2023-02-10T00:20:23;2.20;1.00
16479;DHT22;8350;52.316;10.530;2023-02-10T00:22:50;2.30;1.00
16479;DHT22;8350;52.316;10.530;2023-02-10T00:25:18;2.30;1.00
16479;DHT22;8350;52.316;10.530;2023-02-10T00:27:45;2.30;1.00
16479;DHT22;8350;52.316;10.530;2023-02-10T00:30:13;2.30;1.00
16479;DHT22;8350;52.316;10.530;2023-02-10T00:32:40;2.30;1.00
16479;DHT22;8350;52.316;10.530;2023-02-10T00:35:07;2.40;1.00
16479;DHT22;8350;52.316;10.530;2023-02-10T00:37:34;2.40;1.00
16479;DHT22;8350;52.316;10.530;2023-02-10T00:40:01;2.40;1.00
16479;DHT22;8350;52.316;10.530;2023-02-10T00:42:32;2.40;1.00
16479;DHT22;8350;52.316;10.530;2023-02-10T00:44:59;2.50;1.00
16479;DHT22;8350;52.316;10.530;2023-02-10T00:47:26;2.40;1.00
16479;DHT22;8350;52.316;10.530;2023-02-10T00:49:52;2.50;1.00
16479;DHT22;8350;52.316;10.530;2023-02-10T00:52:19;2.50;1.00
16479;DHT22;8350;52.316;10.530;2023-02-10T00:54:46;2.50;1.00
16479;DHT22;8350;52.316;10.530;2023-02-10T00:57:14;2.50;1.00
16479;DHT22;8350;52.316;10.530;2023-02-10T00:59:45;2.50;1.00
16479;DHT22;8350;52.316;10.530;2023-02-10T01:02:15;2.50;1.00
16479;DHT22;8350;52.316;10.530;2023-02-10T01:04:42;2.50;1.00
16479;DHT22;8350;52.316;10.530;2023-02-10T01:07:09;2.50;1.00
16479;DHT22;8350;52.316;10.530;2023-02-10T01:09:36;2.50;1.00
16479;DHT22;8350;52.316;10.530;2023-02-10T01:12:03;2.50;1.00
16479;DHT22;8350;52.316;10.530;2023-02-10T01:14:30;2.50;1.00
16479;DHT22;8350;52.316;10.530;2023-02-10T01:16:58;2.60;1.00
16479;DHT22;8350;52.316;10.530;2023-02-10T01:19:25;2.60;1.00
16479;DHT22;8350;52.316;10.530;2023-02-10T01:21:52;2.60;1.00
16479;DHT22;8350;52.316;10.530;2023-02-10T01:24:19;2.60;1.00
16479;DHT22;8350;52.316;10.530;2023-02-10T01:26:46;2.60;1.00
16479;DHT22;8350;52.316;10.530;2023-02-10T01:29:14;2.60;1.00
16479;DHT22;8350;52.316;10.530;2023-02-10T01:31:41;2.60;1.00
16479;DHT22;8350;52.316;10.530;2023-02-10T01:34:10;2.60;1.00
16479;DHT22;8350;52.316;10.530;2023-02-10T01:36:37;2.60;1.00
16479;DHT22;8350;52.316;10.530;2023-02-10T01:39:04;2.60;1.00
16479;DHT22;8350;52.316;10.530;2023-02-10T01:41:31;2.50;1.00
16479;DHT22;8350;52.316;10.530;2023-02-10T01:44:00;2.50;1.00
16479;DHT22;8350;52.316;10.530;2023-02-10T01:46:29;2.50;1.00
16479;DHT22;8350;52.316;10.530;2023-02-10T01:48:58;2.50;1.00
16479;DHT22;8350;52.316;10.530;2023-02-10T01:51:33;2.50;1.00
16479;DHT22;8350;52.316;10.530;2023-02-10T01:54:04;2.50;1.00
16479;DHT22;8350;52.316;10.530;2023-02-10T01:56:32;2.50;1.00
16479;DHT22;8350;52.316;10.530;2023-02-10T01:59:05;2.50;1.00
16479;DHT22;8350;52.316;10.530;2023-02-10T02:01:33;2.50;1.00
16479;DHT22;8350;52.316;10.530;2023-02-10T02:04:00;2.50;1.00
16479;DHT22;8350;52.316;10.530;2023-02-10T02:06:30;2.50;1.00
16479;DHT22;8350;52.316;10.530;2023-02-10T02:08:57;2.50;1.00
16479;DHT22;8350;52.316;10.530;2023-02-10T02:11:30;2.50;2.20
16479;DHT22;8350;52.316;10.530;2023-02-10T02:14:15;2.50;2.50
16479;DHT22;8350;52.316;10.530;2023-02-10T02:16:57;2.50;3.60
16479;DHT22;8350;52.316;10.530;2023-02-10T02:26:01;2.40;9.20
16479;DHT22;8350;52.316;10.530;2023-02-10T02:28:39;2.40;10.80
16479;DHT22;8350;52.316;10.530;2023-02-10T02:34:15;2.50;13.30
16479;DHT22;8350;52.316;10.530;2023-02-10T02:36:48;2.50;11.50
16479;DHT22;8350;52.316;10.530;2023-02-10T02:39:15;2.50;10.50
16479;DHT22;8350;52.316;10.530;2023-02-10T02:41:43;2.50;8.20
16479;DHT22;8350;52.316;10.530;2023-02-10T02:44:10;2.50;5.30
16479;DHT22;8350;52.316;10.530;2023-02-10T02:46:47;2.50;12.30
16479;DHT22;8350;52.316;10.530;2023-02-10T02:49:25;2.50;13.80
16479;DHT22;8350;52.316;10.530;2023-02-10T02:51:59;2.50;15.40
16479;DHT22;8350;52.316;10.530;2023-02-10T02:54:37;2.50;17.80
16479;DHT22;8350;52.316;10.530;2023-02-10T02:57:13;2.50;18.50
16479;DHT22;8350;52.316;10.530;2023-02-10T02:59:47;2.50;22.80
16479;DHT22;8350;52.316;10.530;2023-02-10T03:02:17;2.50;26.40
16479;DHT22;8350;52.316;10.530;2023-02-10T03:04:47;2.50;28.20
16479;DHT22;8350;52.316;10.530;2023-02-10T03:07:15;2.50;28.70
16479;DHT22;8350;52.316;10.530;2023-02-10T03:09:42;2.50;33.60
16479;DHT22;8350;52.316;10.530;2023-02-10T03:12:09;2.50;38.80
16479;DHT22;8350;52.316;10.530;2023-02-10T03:14:37;2.50;39.50
16479;DHT22;8350;52.316;10.530;2023-02-10T03:17:04;2.50;40.80
16479;DHT22;8350;52.316;10.530;2023-02-10T03:19:31;2.40;43.50
16479;DHT22;8350;52.316;10.530;2023-02-10T03:22:00;2.40;46.70
16479;DHT22;8350;52.316;10.530;2023-02-10T03:24:27;2.40;49.90
16479;DHT22;8350;52.316;10.530;2023-02-10T03:26:54;2.40;52.30
16479;DHT22;8350;52.316;10.530;2023-02-10T03:29:21;2.40;53.60
16479;DHT22;8350;52.316;10.530;2023-02-10T03:31:49;2.40;54.20
16479;DHT22;8350;52.316;10.530;2023-02-10T03:34:16;2.40;55.50
16479;DHT22;8350;52.316;10.530;2023-02-10T03:36:45;2.40;49.90
16479;DHT22;8350;52.316;10.530;2023-02-10T03:39:13;2.40;48.90
16479;DHT22;8350;52.316;10.530;2023-02-10T03:41:40;2.40;49.00
16479;DHT22;8350;52.316;10.530;2023-02-10T03:44:07;2.40;53.00
16479;DHT22;8350;52.316;10.530;2023-02-10T03:46:34;2.40;52.20
16479;DHT22;8350;52.316;10.530;2023-02-10T03:49:03;2.40;54.10
16479;DHT22;8350;52.316;10.530;2023-02-10T03:51:30;2.40;51.40
16479;DHT22;8350;52.316;10.530;2023-02-10T03:53:56;2.40;49.80
16479;DHT22;8350;52.316;10.530;2023-02-10T03:56:25;2.40;44.40
16479;DHT22;8350;52.316;10.530;2023-02-10T03:58:52;2.40;46.30
16479;DHT22;8350;52.316;10.530;2023-02-10T04:01:19;2.40;44.50
16479;DHT22;8350;52.316;10.530;2023-02-10T04:03:46;2.40;42.40
16479;DHT22;8350;52.316;10.530;2023-02-10T04:06:13;2.50;36.10
16479;DHT22;8350;52.316;10.530;2023-02-10T04:08:40;2.40;34.90
16479;DHT22;8350;52.316;10.530;2023-02-10T04:11:07;2.50;30.10
16479;DHT22;8350;52.316;10.530;2023-02-10T04:13:36;2.50;26.20
16479;DHT22;8350;52.316;10.530;2023-02-10T04:16:05;2.40;26.40
16479;DHT22;8350;52.316;10.530;2023-02-10T04:18:32;2.40;30.60
16479;DHT22;8350;52.316;10.530;2023-02-10T04:21:03;2.40;26.50
16479;DHT22;8350;52.316;10.530;2023-02-10T04:23:30;2.50;23.70
16479;DHT22;8350;52.316;10.530;2023-02-10T04:25:58;2.50;19.50
16479;DHT22;8350;52.316;10.530;2023-02-10T04:28:26;2.50;19.40
16479;DHT22;8350;52.316;10.530;2023-02-10T04:30:56;2.50;16.90
16479;DHT22;8350;52.316;10.530;2023-02-10T04:33:23;2.50;16.20
16479;DHT22;8350;52.316;10.530;2023-02-10T04:35:51;2.50;12.80
16479;DHT22;8350;52.316;10.530;2023-02-10T04:38:18;2.50;13.70
16479;DHT22;8350;52.316;10.530;2023-02-10T04:40:45;2.50;13.80
16479;DHT22;8350;52.316;10.530;2023-02-10T04:43:13;2.50;12.30
16479;DHT22;8350;52.316;10.530;2023-02-10T04:45:40;2.50;10.60
16479;DHT22;8350;52.316;10.530;2023-02-10T04:48:09;2.40;11.50
16479;DHT22;8350;52.316;10.530;2023-02-10T04:50:36;2.40;11.90
16479;DHT22;8350;52.316;10.530;2023-02-10T04:53:03;2.40;11.80
16479;DHT22;8350;52.316;10.530;2023-02-10T04:55:30;2.50;10.20
16479;DHT22;8350;52.316;10.530;2023-02-10T04:57:57;2.40;8.70
16479;DHT22;8350;52.316;10.530;2023-02-10T05:00:24;2.40;9.80
16479;DHT22;8350;52.316;10.530;2023-02-10T05:02:54;2.40;11.30
16479;DHT22;8350;52.316;10.530;2023-02-10T05:05:22;2.50;10.20
16479;DHT22;8350;52.316;10.530;2023-02-10T05:07:50;2.50;8.10
16479;DHT22;8350;52.316;10.530;2023-02-10T05:10:18;2.50;7.10
16479;DHT22;8350;52.316;10.530;2023-02-10T05:12:45;2.50;7.70
16479;DHT22;8350;52.316;10.530;2023-02-10T05:15:12;2.50;5.10
16479;DHT22;8350;52.316;10.530;2023-02-10T05:17:40;2.50;5.20
16479;DHT22;8350;52.316;10.530;2023-02-10T05:20:08;2.50;5.00
16479;DHT22;8350;52.316;10.530;2023-02-10T05:22:37;2.50;5.90
16479;DHT22;8350;52.316;10.530;2023-02-10T05:25:04;2.50;5.90
16479;DHT22;8350;52.316;10.530;2023-02-10T05:27:31;2.50;5.10
16479;DHT22;8350;52.316;10.530;2023-02-10T05:29:58;2.40;7.50
16479;DHT22;8350;52.316;10.530;2023-02-10T05:32:26;2.50;12.10
16479;DHT22;8350;52.316;10.530;2023-02-10T05:34:56;2.50;10.10
16479;DHT22;8350;52.316;10.530;2023-02-10T05:37:22;2.50;10.80
16479;DHT22;8350;52.316;10.530;2023-02-10T05:39:51;2.40;13.50
16479;DHT22;8350;52.316;10.530;2023-02-10T05:42:18;2.40;18.80
16479;DHT22;8350;52.316;10.530;2023-02-10T05:44:45;2.40;17.40
16479;DHT22;8350;52.316;10.530;2023-02-10T05:47:12;2.50;16.40
16479;DHT22;8350;52.316;10.530;2023-02-10T05:49:39;2.50;16.10
16479;DHT22;8350;52.316;10.530;2023-02-10T05:52:06;2.50;13.70
16479;DHT22;8350;52.316;10.530;2023-02-10T05:54:32;2.50;12.60
16479;DHT22;8350;52.316;10.530;2023-02-10T05:57:02;2.50;12.20
16479;DHT22;8350;52.316;10.530;2023-02-10T05:59:29;2.50;12.30
16479;DHT22;8350;52.316;10.530;2023-02-10T06:01:56;2.50;13.30
16479;DHT22;8350;52.316;10.530;2023-02-10T06:04:24;2.50;13.50
16479;DHT22;8350;52.316;10.530;2023-02-10T06:06:51;2.50;13.70
16479;DHT22;8350;52.316;10.530;2023-02-10T06:09:21;2.50;12.80
16479;DHT22;8350;52.316;10.530;2023-02-10T06:11:49;2.50;11.90
16479;DHT22;8350;52.316;10.530;2023-02-10T06:14:18;2.50;13.30
16479;DHT22;8350;52.316;10.530;2023-02-10T06:16:46;2.50;14.70
16479;DHT22;8350;52.316;10.530;2023-02-10T06:19:14;2.50;11.00
16479;DHT22;8350;52.316;10.530;2023-02-10T06:21:41;2.50;11.40
16479;DHT22;8350;52.316;10.530;2023-02-10T06:24:08;2.50;13.30
16479;DHT22;8350;52.316;10.530;2023-02-10T06:26:35;2.50;13.50
16479;DHT22;8350;52.316;10.530;2023-02-10T06:29:02;2.60;9.70
16479;DHT22;8350;52.316;10.530;2023-02-10T06:31:30;2.50;7.50
16479;DHT22;8350;52.316;10.530;2023-02-10T06:33:57;2.50;9.00
16479;DHT22;8350;52.316;10.530;2023-02-10T06:36:24;2.50;9.90
16479;DHT22;8350;52.316;10.530;2023-02-10T06:38:51;2.50;10.70
16479;DHT22;8350;52.316;10.530;2023-02-10T06:41:18;2.50;7.50
16479;DHT22;8350;52.316;10.530;2023-02-10T06:43:45;2.50;8.10
16479;DHT22;8350;52.316;10.530;2023-02-10T06:46:13;2.50;8.60
16479;DHT22;8350;52.316;10.530;2023-02-10T06:48:42;2.50;3.30
16479;DHT22;8350;52.316;10.530;2023-02-10T06:51:09;2.50;1.00
16479;DHT22;8350;52.316;10.530;2023-02-10T06:53:36;2.40;1.00
16479;DHT22;8350;52.316;10.530;2023-02-10T06:56:03;2.40;4.20
16479;DHT22;8350;52.316;10.530;2023-02-10T06:58:30;2.40;5.10
16479;DHT22;8350;52.316;10.530;2023-02-10T07:00:57;2.40;7.50
16479;DHT22;8350;52.316;10.530;2023-02-10T07:03:27;2.40;7.70
16479;DHT22;8350;52.316;10.530;2023-02-10T07:05:55;2.40;11.10
16479;DHT22;8350;52.316;10.530;2023-02-10T07:08:22;2.40;9.00
16479;DHT22;8350;52.316;10.530;2023-02-10T07:10:49;2.40;8.70
16479;DHT22;8350;52.316;10.530;2023-02-10T07:13:16;2.50;11.10
16479;DHT22;8350;52.316;10.530;2023-02-10T07:15:43;2.50;11.50
16479;DHT22;8350;52.316;10.530;2023-02-10T07:18:13;2.50;10.30
16479;DHT22;8350;52.316;10.530;2023-02-10T07:20:40;2.50;7.40
16479;DHT22;8350;52.316;10.530;2023-02-10T07:23:08;2.50;6.70
16479;DHT22;8350;52.316;10.530;2023-02-10T07:25:35;2.50;2.00
16479;DHT22;8350;52.316;10.530;2023-02-10T07:28:03;2.60;4.00
16479;DHT22;8350;52.316;10.530;2023-02-10T07:30:33;2.60;4.60
16479;DHT22;8350;52.316;10.530;2023-02-10T07:33:00;2.60;1.00
16479;DHT22;8350;52.316;10.530;2023-02-10T07:35:28;2.60;1.00
16479;DHT22;8350;52.316;10.530;2023-02-10T07:37:55;2.60;1.00
16479;DHT22;8350;52.316;10.530;2023-02-10T07:40:24;2.70;1.00
16479;DHT22;8350;52.316;10.530;2023-02-10T07:42:54;2.70;1.00
16479;DHT22;8350;52.316;10.530;2023-02-10T07:45:21;2.70;1.00
16479;DHT22;8350;52.316;10.530;2023-02-10T07:47:50;2.70;1.00
16479;DHT22;8350;52.316;10.530;2023-02-10T07:50:17;2.70;1.00
16479;DHT22;8350;52.316;10.530;2023-02-10T07:52:44;2.70;1.00
16479;DHT22;8350;52.316;10.530;2023-02-10T07:55:11;2.70;1.00
16479;DHT22;8350;52.316;10.530;2023-02-10T07:57:40;2.80;1.00
16479;DHT22;8350;52.316;10.530;2023-02-10T08:00:09;2.80;1.00
16479;DHT22;8350;52.316;10.530;2023-02-10T08:02:37;2.80;1.00
16479;DHT22;8350;52.316;10.530;2023-02-10T08:05:05;2.70;1.00
16479;DHT22;8350;52.316;10.530;2023-02-10T08:07:32;2.80;1.00
16479;DHT22;8350;52.316;10.530;2023-02-10T08:09:59;2.70;1.00
16479;DHT22;8350;52.316;10.530;2023-02-10T08:12:26;2.80;1.00
16479;DHT22;8350;52.316;10.530;2023-02-10T08:14:54;2.80;1.00
16479;DHT22;8350;52.316;10.530;2023-02-10T08:17:21;2.80;1.00
16479;DHT22;8350;52.316;10.530;2023-02-10T08:19:48;2.80;1.00
16479;DHT22;8350;52.316;10.530;2023-02-10T08:22:15;2.90;1.00
16479;DHT22;8350;52.316;10.530;2023-02-10T08:24:42;2.90;1.00
16479;DHT22;8350;52.316;10.530;2023-02-10T08:27:09;3.00;1.00
16479;DHT22;8350;52.316;10.530;2023-02-10T08:29:37;3.10;1.00
16479;DHT22;8350;52.316;10.530;2023-02-10T08:32:05;3.10;1.00
16479;DHT22;8350;52.316;10.530;2023-02-10T08:34:32;3.10;1.00
16479;DHT22;8350;52.316;10.530;2023-02-10T08:36:59;3.10;1.00
16479;DHT22;8350;52.316;10.530;2023-02-10T08:39:27;3.20;1.00
16479;DHT22;8350;52.316;10.530;2023-02-10T08:41:55;3.30;1.00
16479;DHT22;8350;52.316;10.530;2023-02-10T08:44:22;3.30;1.00
16479;DHT22;8350;52.316;10.530;2023-02-10T08:46:49;3.30;1.00
16479;DHT22;8350;52.316;10.530;2023-02-10T08:49:17;3.40;1.00
16479;DHT22;8350;52.316;10.530;2023-02-10T08:51:49;3.40;1.00
16479;DHT22;8350;52.316;10.530;2023-02-10T08:54:16;3.40;1.00
16479;DHT22;8350;52.316;10.530;2023-02-10T08:56:44;3.40;1.00
16479;DHT22;8350;52.316;10.530;2023-02-10T08:59:11;3.40;1.00
16479;DHT22;8350;52.316;10.530;2023-02-10T09:01:39;3.40;1.00
16479;DHT22;8350;52.316;10.530;2023-02-10T09:04:06;3.50;1.00
16479;DHT22;8350;52.316;10.530;2023-02-10T09:06:36;3.50;1.00
16479;DHT22;8350;52.316;10.530;2023-02-10T09:09:06;3.60;1.00
16479;DHT22;8350;52.316;10.530;2023-02-10T09:11:33;3.60;1.00
16479;DHT22;8350;52.316;10.530;2023-02-10T09:14:00;3.70;1.00
16479;DHT22;8350;52.316;10.530;2023-02-10T09:16:27;3.70;1.00
16479;DHT22;8350;52.316;10.530;2023-02-10T09:18:54;3.70;1.00
16479;DHT22;8350;52.316;10.530;2023-02-10T09:21:21;3.80;1.00
16479;DHT22;8350;52.316;10.530;2023-02-10T09:23:51;3.90;1.00
16479;DHT22;8350;52.316;10.530;2023-02-10T09:26:18;4.00;1.00
16479;DHT22;8350;52.316;10.530;2023-02-10T09:28:46;4.00;1.00
16479;DHT22;8350;52.316;10.530;2023-02-10T09:31:15;4.00;1.00
16479;DHT22;8350;52.316;10.530;2023-02-10T09:33:43;4.10;1.00
16479;DHT22;8350;52.316;10.530;2023-02-10T09:36:13;4.20;1.00
16479;DHT22;8350;52.316;10.530;2023-02-10T09:38:41;4.20;1.00
16479;DHT22;8350;52.316;10.530;2023-02-10T09:41:18;4.30;1.00
16479;DHT22;8350;52.316;10.530;2023-02-10T09:46:47;4.40;1.00
16479;DHT22;8350;52.316;10.530;2023-02-10T09:49:31;4.40;1.00
16479;DHT22;8350;52.316;10.530;2023-02-10T09:52:06;4.40;1.00
16479;DHT22;8350;52.316;10.530;2023-02-10T09:54:35;4.50;1.00
16479;DHT22;8350;52.316;10.530;2023-02-10T09:57:05;4.50;1.00
16479;DHT22;8350;52.316;10.530;2023-02-10T09:59:35;4.50;1.00
16479;DHT22;8350;52.316;10.530;2023-02-10T10:02:13;4.50;1.00
16479;DHT22;8350;52.316;10.530;2023-02-10T10:04:43;4.60;1.00
16479;DHT22;8350;52.316;10.530;2023-02-10T10:07:19;4.50;1.00
16479;DHT22;8350;52.316;10.530;2023-02-10T10:09:56;4.60;1.00
16479;DHT22;8350;52.316;10.530;2023-02-10T10:12:26;4.70;1.00
16479;DHT22;8350;52.316;10.530;2023-02-10T10:14:53;4.70;1.00
16479;DHT22;8350;52.316;10.530;2023-02-10T10:17:36;4.70;1.00
16479;DHT22;8350;52.316;10.530;2023-02-10T10:20:27;4.80;1.00
16479;DHT22;8350;52.316;10.530;2023-02-10T10:23:01;4.80;1.00
16479;DHT22;8350;52.316;10.530;2023-02-10T10:25:48;4.80;1.00
16479;DHT22;8350;52.316;10.530;2023-02-10T10:28:26;4.80;1.00
16479;DHT22;8350;52.316;10.530;2023-02-10T10:31:00;4.80;1.00
16479;DHT22;8350;52.316;10.530;2023-02-10T10:33:31;4.90;1.00
16479;DHT22;8350;52.316;10.530;2023-02-10T10:36:02;4.90;1.00
16479;DHT22;8350;52.316;10.530;2023-02-10T10:38:31;4.90;1.00
16479;DHT22;8350;52.316;10.530;2023-02-10T10:41:02;5.00;1.00
16479;DHT22;8350;52.316;10.530;2023-02-10T10:43:35;5.00;1.00
16479;DHT22;8350;52.316;10.530;2023-02-10T10:46:10;5.00;1.00
16479;DHT22;8350;52.316;10.530;2023-02-10T10:48:40;5.10;1.00
16479;DHT22;8350;52.316;10.530;2023-02-10T10:51:09;5.20;1.00
16479;DHT22;8350;52.316;10.530;2023-02-10T10:53:40;5.20;1.00
16479;DHT22;8350;52.316;10.530;2023-02-10T10:56:12;5.20;1.00
16479;DHT22;8350;52.316;10.530;2023-02-10T10:58:43;5.20;1.00
16479;DHT22;8350;52.316;10.530;2023-02-10T11:01:12;5.30;1.00
16479;DHT22;8350;52.316;10.530;2023-02-10T11:03:39;5.20;1.00
16479;DHT22;8350;52.316;10.530;2023-02-10T11:06:08;5.20;1.00
16479;DHT22;8350;52.316;10.530;2023-02-10T11:08:38;5.20;1.00
16479;DHT22;8350;52.316;10.530;2023-02-10T11:11:09;5.20;1.00
16479;DHT22;8350;52.316;10.530;2023-02-10T11:13:39;5.20;1.00
16479;DHT22;8350;52.316;10.530;2023-02-10T11:16:11;5.30;1.00
16479;DHT22;8350;52.316;10.530;2023-02-10T11:18:51;5.30;1.00
16479;DHT22;8350;52.316;10.530;2023-02-10T11:21:18;5.40;1.00
16479;DHT22;8350;52.316;10.530;2023-02-10T11:23:48;5.40;1.00
16479;DHT22;8350;52.316;10.530;2023-02-10T11:26:18;5.50;1.00
16479;DHT22;8350;52.316;10.530;2023-02-10T11:28:45;5.50;1.00
16479;DHT22;8350;52.316;10.530;2023-02-10T11:31:23;5.50;1.00
16479;DHT22;8350;52.316;10.530;2023-02-10T11:33:56;5.40;1.00
16479;DHT22;8350;52.316;10.530;2023-02-10T11:36:30;5.40;1.00
16479;DHT22;8350;52.316;10.530;2023-02-10T11:39:00;5.40;1.00
16479;DHT22;8350;52.316;10.530;2023-02-10T11:41:29;5.50;1.00
16479;DHT22;8350;52.316;10.530;2023-02-10T11:43:56;5.50;1.00
16479;DHT22;8350;52.316;10.530;2023-02-10T11:46:26;5.50;1.00
16479;DHT22;8350;52.316;10.530;2023-02-10T11:48:56;5.50;1.00
16479;DHT22;8350;52.316;10.530;2023-02-10T11:51:24;5.40;1.00
16479;DHT22;8350;52.316;10.530;2023-02-10T11:53:51;5.50;1.00
16479;DHT22;8350;52.316;10.530;2023-02-10T11:56:24;5.40;1.00
16479;DHT22;8350;52.316;10.530;2023-02-10T11:59:12;5.40;1.00
16479;DHT22;8350;52.316;10.530;2023-02-10T12:01:53;5.40;1.00
16479;DHT22;8350;52.316;10.530;2023-02-10T12:04:36;5.50;1.00
16479;DHT22;8350;52.316;10.530;2023-02-10T12:07:11;5.60;1.00
16479;DHT22;8350;52.316;10.530;2023-02-10T12:09:48;5.50;1.00
16479;DHT22;8350;52.316;10.530;2023-02-10T12:12:21;5.60;1.00
16479;DHT22;8350;52.316;10.530;2023-02-10T12:14:59;5.60;1.00
16479;DHT22;8350;52.316;10.530;2023-02-10T12:17:32;5.70;1.00
16479;DHT22;8350;52.316;10.530;2023-02-10T12:20:16;5.70;1.00
16479;DHT22;8350;52.316;10.530;2023-02-10T12:23:16;5.60;1.00
16479;DHT22;8350;52.316;10.530;2023-02-10T12:25:52;5.70;1.00
16479;DHT22;8350;52.316;10.530;2023-02-10T12:28:30;5.80;1.00
16479;DHT22;8350;52.316;10.530;2023-02-10T12:31:20;5.90;1.00
16479;DHT22;8350;52.316;10.530;2023-02-10T12:36:49;6.10;1.00
16479;DHT22;8350;52.316;10.530;2023-02-10T12:39:22;6.30;1.00
16479;DHT22;8350;52.316;10.530;2023-02-10T12:41:58;6.40;1.00
16479;DHT22;8350;52.316;10.530;2023-02-10T12:44:39;6.30;1.00
16479;DHT22;8350;52.316;10.530;2023-02-10T12:47:20;6.30;1.00
16479;DHT22;8350;52.316;10.530;2023-02-10T12:50:06;6.40;1.00
16479;DHT22;8350;52.316;10.530;2023-02-10T12:52:42;6.30;1.00
16479;DHT22;8350;52.316;10.530;2023-02-10T12:55:16;6.30;1.00
16479;DHT22;8350;52.316;10.530;2023-02-10T12:57:48;6.30;1.00
16479;DHT22;8350;52.316;10.530;2023-02-10T13:00:23;6.40;1.00
16479;DHT22;8350;52.316;10.530;2023-02-10T13:02:56;6.50;1.00
16479;DHT22;8350;52.316;10.530;2023-02-10T13:05:33;6.60;1.00
16479;DHT22;8350;52.316;10.530;2023-02-10T13:08:03;6.70;1.00
16479;DHT22;8350;52.316;10.530;2023-02-10T13:10:35;6.70;1.00
16479;DHT22;8350;52.316;10.530;2023-02-10T13:13:05;6.80;1.00
16479;DHT22;8350;52.316;10.530;2023-02-10T13:15:37;6.80;1.00
16479;DHT22;8350;52.316;10.530;2023-02-10T13:18:16;6.70;1.00
16479;DHT22;8350;52.316;10.530;2023-02-10T13:21:02;6.70;1.00
16479;DHT22;8350;52.316;10.530;2023-02-10T13:23:38;6.70;1.00
16479;DHT22;8350;52.316;10.530;2023-02-10T13:26:17;6.80;1.00
16479;DHT22;8350;52.316;10.530;2023-02-10T13:28:57;6.70;1.00
16479;DHT22;8350;52.316;10.530;2023-02-10T13:31:37;6.70;1.00
16479;DHT22;8350;52.316;10.530;2023-02-10T13:34:15;6.70;1.00
16479;DHT22;8350;52.316;10.530;2023-02-10T13:36:50;6.80;1.00
16479;DHT22;8350;52.316;10.530;2023-02-10T13:39:20;6.80;1.00
16479;DHT22;8350;52.316;10.530;2023-02-10T13:41:50;6.80;1.00
16479;DHT22;8350;52.316;10.530;2023-02-10T13:44:24;6.90;1.00
16479;DHT22;8350;52.316;10.530;2023-02-10T13:47:22;6.80;1.00
16479;DHT22;8350;52.316;10.530;2023-02-10T13:50:00;6.80;1.00
16479;DHT22;8350;52.316;10.530;2023-02-10T13:52:49;6.70;1.00
16479;DHT22;8350;52.316;10.530;2023-02-10T13:55:35;6.60;1.00
16479;DHT22;8350;52.316;10.530;2023-02-10T14:00:59;6.40;1.00
16479;DHT22;8350;52.316;10.530;2023-02-10T14:03:28;6.40;1.00
16479;DHT22;8350;52.316;10.530;2023-02-10T14:06:00;6.40;1.00
16479;DHT22;8350;52.316;10.530;2023-02-10T14:08:33;6.50;1.00
16479;DHT22;8350;52.316;10.530;2023-02-10T14:11:05;6.60;1.00
16479;DHT22;8350;52.316;10.530;2023-02-10T14:13:34;6.80;1.00
16479;DHT22;8350;52.316;10.530;2023-02-10T14:16:04;6.90;1.00
16479;DHT22;8350;52.316;10.530;2023-02-10T14:18:33;6.90;1.00
16479;DHT22;8350;52.316;10.530;2023-02-10T14:21:04;6.90;1.00
16479;DHT22;8350;52.316;10.530;2023-02-10T14:23:35;6.90;1.00
16479;DHT22;8350;52.316;10.530;2023-02-10T14:26:04;6.90;1.00
16479;DHT22;8350;52.316;10.530;2023-02-10T14:28:35;6.90;1.00
16479;DHT22;8350;52.316;10.530;2023-02-10T14:31:06;6.90;1.00
16479;DHT22;8350;52.316;10.530;2023-02-10T14:33:37;7.00;1.00
16479;DHT22;8350;52.316;10.530;2023-02-10T14:36:13;6.90;1.00
16479;DHT22;8350;52.316;10.530;2023-02-10T14:38:44;6.80;1.00
16479;DHT22;8350;52.316;10.530;2023-02-10T14:41:15;6.70;1.00
16479;DHT22;8350;52.316;10.530;2023-02-10T14:43:42;6.70;1.00
16479;DHT22;8350;52.316;10.530;2023-02-10T14:46:18;6.50;1.00
16479;DHT22;8350;52.316;10.530;2023-02-10T14:48:46;6.40;1.00
16479;DHT22;8350;52.316;10.530;2023-02-10T14:51:20;6.30;1.00
16479;DHT22;8350;52.316;10.530;2023-02-10T14:53:51;6.20;1.00
16479;DHT22;8350;52.316;10.530;2023-02-10T14:56:23;6.20;1.00
16479;DHT22;8350;52.316;10.530;2023-02-10T14:58:50;6.10;1.00
16479;DHT22;8350;52.316;10.530;2023-02-10T15:01:23;6.20;1.00
16479;DHT22;8350;52.316;10.530;2023-02-10T15:03:56;6.10;1.00
16479;DHT22;8350;52.316;10.530;2023-02-10T15:06:26;6.10;1.00
16479;DHT22;8350;52.316;10.530;2023-02-10T15:08:59;6.00;1.00
16479;DHT22;8350;52.316;10.530;2023-02-10T15:11:30;5.90;1.00
16479;DHT22;8350;52.316;10.530;2023-02-10T15:14:18;5.90;1.00
16479;DHT22;8350;52.316;10.530;2023-02-10T15:16:49;5.80;1.00
16479;DHT22;8350;52.316;10.530;2023-02-10T15:19:17;5.80;1.00
16479;DHT22;8350;52.316;10.530;2023-02-10T15:21:45;5.70;1.00
16479;DHT22;8350;52.316;10.530;2023-02-10T15:24:32;5.70;1.00
16479;DHT22;8350;52.316;10.530;2023-02-10T15:27:12;5.60;1.00
16479;DHT22;8350;52.316;10.530;2023-02-10T15:29:40;5.60;1.00
16479;DHT22;8350;52.316;10.530;2023-02-10T15:32:16;5.50;1.00
16479;DHT22;8350;52.316;10.530;2023-02-10T15:34:44;5.50;1.00
16479;DHT22;8350;52.316;10.530;2023-02-10T15:37:17;5.40;1.00
16479;DHT22;8350;52.316;10.530;2023-02-10T15:39:57;5.40;1.00
16479;DHT22;8350;52.316;10.530;2023-02-10T15:42:27;5.40;1.00
16479;DHT22;8350;52.316;10.530;2023-02-10T15:45:03;5.30;1.00
16479;DHT22;8350;52.316;10.530;2023-02-10T15:47:41;5.20;1.00
16479;DHT22;8350;52.316;10.530;2023-02-10T15:50:12;5.20;1.00
16479;DHT22;8350;52.316;10.530;2023-02-10T15:52:41;5.20;1.00
16479;DHT22;8350;52.316;10.530;2023-02-10T15:55:16;5.10;1.00
16479;DHT22;8350;52.316;10.530;2023-02-10T15:57:43;5.00;1.00
16479;DHT22;8350;52.316;10.530;2023-02-10T16:00:17;4.90;1.00
16479;DHT22;8350;52.316;10.530;2023-02-10T16:02:44;4.80;1.00
16479;DHT22;8350;52.316;10.530;2023-02-10T16:05:11;4.70;1.00
16479;DHT22;8350;52.316;10.530;2023-02-10T16:07:38;4.70;1.00
16479;DHT22;8350;52.316;10.530;2023-02-10T16:10:09;4.70;1.00
16479;DHT22;8350;52.316;10.530;2023-02-10T16:12:41;4.70;1.00
16479;DHT22;8350;52.316;10.530;2023-02-10T16:15:12;4.80;1.00
16479;DHT22;8350;52.316;10.530;2023-02-10T16:17:42;4.70;1.00
16479;DHT22;8350;52.316;10.530;2023-02-10T16:20:14;4.70;1.00
16479;DHT22;8350;52.316;10.530;2023-02-10T16:22:43;4.60;1.00
16479;DHT22;8350;52.316;10.530;2023-02-10T16:25:11;4.50;1.00
16479;DHT22;8350;52.316;10.530;2023-02-10T16:27:38;4.50;1.00
16479;DHT22;8350;52.316;10.530;2023-02-10T16:30:12;4.40;1.00
16479;DHT22;8350;52.316;10.530;2023-02-10T16:32:42;4.40;1.00
16479;DHT22;8350;52.316;10.530;2023-02-10T16:35:09;4.20;1.00